Vail, CO

4:27 PM MDT on May 27, 2015 (GMT -0600)
RAWS | | Change Station
CLOSE
Current Station
Personal Weather Station
Location: Vail, CO
Elevation: 9067 ft
Nearby Weather Stations

Elev 9067 ft 39.63 °N, 106.45 °W | Updated 5 days ago

Partly Cloudy
Partly Cloudy
45 °F
Feels Like 39 °F
N
11
Wind Variable Wind from West
Gusts 18 mph

Today
High -- | Low -- °F
--% Chance of Precip.
Yesterday
High -- | Low -- °F
Precip. -- in
5:42 AM 8:23 PM
Waxing Gibbous, 70% visible
Pressure 30.17 in
Visibility 10.0 miles
Clouds Scattered Clouds 7000 ft
Mostly Cloudy 10000 ft
Windchill 39 °F
Dew Point 26 °F
Humidity 48%
Rainfall in
Snow Depth Not available.
UV 5 out of 12
Pollen 8.00 out of 12
Air Quality Not available.
Flu Activity Sporadic
METAR KEGE 272150Z 20017G24KT 10SM -RA SCT070 BKN100 17/04 A3017

More Conditions Fewer Conditions

Pressure 30.17 in
Visibility 10.0 miles
Clouds Scattered Clouds 7000 ft
Mostly Cloudy 10000 ft
Windchill 39 °F
Dew Point 26 °F
Humidity 48%
Rainfall in
Snow Depth Not available.
UV 5 out of 12
Pollen 8.00 out of 12
Air Quality Not available.
Flu Activity Sporadic
METAR KEGE 272150Z 20017G24KT 10SM -RA SCT070 BKN100 17/04 A3017

More Conditions Fewer Conditions

10-Day Weather Forecast

Almanac

Astronomy

May. 27, 2015 Rise Set
Actual Time
Civil Twilight
Nautical Twilight
Astronomical Twilight
Moon
Length of Visible Light
Length of Day
Tomorrow will be .
, % of the Moon is Illuminated

Today's Extremes

State Highs State Lows

Community

WunderPhotos

Upload Photos

1,824,813 photos uploaded!

WunderBlogs® & News

Nearby

Air Quality

  Air Quality AQ Index Pollutant
Not available.

Snow Depth

Station Depth Elevation

Earthquake Activity

City Distance Mag. Time & Date
Minimum magnitude displayed is 2.5.

Coastal Water Temperatures

Place Temperature

Stations

Nearby Weather Stations

Station Location Temp. Windchill Dew Point Humidity Wind Precip. Elev Updated Type